Time;durP1;ratioP1;P1;durP2;ratioP2;P2;SDS_P1;SDS_P2;PMS_P1;PMS_P2;Temp;Humidity;BMP_temperature;BMP_pressure;BME280_temperature;BME280_humidity;BME280_pressure;Samples;Min_cycle;Max_cycle;Signal;HPM_P1;HPM_P2
2022/06/27 16:18:44;;;;;;;9.60;4.43;;;;;;;;;;785259;173;917362;-78
2022/06/27 16:21:12;;;;;;;4.80;3.90;;;;;;;;;;755785;182;628974;-72
2022/06/27 16:23:36;;;;;;;8.47;4.67;;;;;;;;;;774318;182;640644;-72
2022/06/27 16:26:02;;;;;;;4.53;3.37;;;;;;;;;;769678;180;633240;-73
2022/06/27 16:28:28;;;;;;;8.70;4.30;;;;;;;;;;779194;180;627841;-72
2022/06/27 16:33:27;;;;;;;4.93;3.80;;;;;;;;;;776904;181;919188;-72
2022/06/27 16:35:51;;;;;;;7.30;4.43;;;;;;;;;;769847;180;639245;-71
2022/06/27 16:38:17;;;;;;;9.00;4.43;;;;;;;;;;776851;181;627084;-72
2022/06/27 16:40:43;;;;;;;5.77;3.80;;;;;;;;;;780647;180;620039;-77
2022/06/27 16:43:14;;;;;;;6.07;3.97;;;;;;;;;;770872;180;816460;-76
2022/06/27 16:45:49;;;;;;;4.93;3.80;;;;;;;;;;775119;181;623178;-72
2022/06/27 16:48:16;;;;;;;4.70;3.50;;;;;;;;;;771784;180;627220;-74
2022/06/27 16:50:41;;;;;;;4.85;4.35;;;;;;;;;;779464;180;645997;-71
2022/06/27 16:53:07;;;;;;;4.57;3.57;;;;;;;;;;771564;180;653543;-79
2022/06/27 16:55:33;;;;;;;6.63;3.77;;;;;;;;;;764299;181;816146;-74
2022/06/27 16:57:59;;;;;;;3.97;3.57;;;;;;;;;;771488;181;789245;-71
2022/06/27 17:00:25;;;;;;;10.53;4.50;;;;;;;;;;775601;181;629724;-73
2022/06/27 17:02:50;;;;;;;5.70;3.43;;;;;;;;;;765088;183;632720;-74
2022/06/27 17:05:16;;;;;;;6.60;3.90;;;;;;;;;;764540;183;631780;-75
2022/06/27 17:07:42;;;;;;;6.80;3.40;;;;;;;;;;762629;181;1500167;-75
2022/06/27 17:10:08;;;;;;;3.80;3.17;;;;;;;;;;765739;183;629380;-74
2022/06/27 17:12:34;;;;;;;5.40;3.50;;;;;;;;;;768896;182;638323;-74
2022/06/27 17:15:00;;;;;;;3.97;3.20;;;;;;;;;;771964;182;632062;-72
2022/06/27 17:17:26;;;;;;;8.47;3.70;;;;;;;;;;773440;180;620473;-75
2022/06/27 17:19:51;;;;;;;6.00;4.10;;;;;;;;;;772791;181;635647;-77
2022/06/27 17:22:17;;;;;;;5.13;4.27;;;;;;;;;;770886;181;640149;-73
2022/06/27 17:24:43;;;;;;;5.27;3.27;;;;;;;;;;772762;183;634962;-72
2022/06/27 17:27:09;;;;;;;13.60;4.47;;;;;;;;;;774160;181;636402;-73
2022/06/27 17:29:35;;;;;;;5.37;3.33;;;;;;;;;;779445;178;625329;-72
2022/06/27 17:32:01;;;;;;;4.97;3.50;;;;;;;;;;777892;181;785807;-73
2022/06/27 17:34:27;;;;;;;4.63;3.37;;;;;;;;;;775981;178;633966;-73
2022/06/27 17:36:52;;;;;;;5.70;3.63;;;;;;;;;;774379;180;622353;-74
2022/06/27 17:39:18;;;;;;;7.00;4.40;;;;;;;;;;775097;180;643824;-73
2022/06/27 17:41:44;;;;;;;5.57;4.10;;;;;;;;;;771569;181;637061;-74
2022/06/27 17:44:10;;;;;;;5.27;3.93;;;;;;;;;;772777;180;632047;-73
2022/06/27 17:46:36;;;;;;;5.30;3.93;;;;;;;;;;778950;180;613979;-72
2022/06/27 17:49:02;;;;;;;6.47;3.87;;;;;;;;;;778927;178;619750;-72
2022/06/27 17:51:27;;;;;;;6.30;4.47;;;;;;;;;;774957;180;637012;-74
2022/06/27 17:53:53;;;;;;;5.53;3.93;;;;;;;;;;764250;180;662758;-74
2022/06/27 17:56:19;;;;;;;3.83;3.43;;;;;;;;;;775447;180;637576;-73
2022/06/27 17:58:45;;;;;;;8.80;4.30;;;;;;;;;;771564;180;637613;-73
2022/06/27 18:01:11;;;;;;;6.00;4.00;;;;;;;;;;770477;180;622369;-74
2022/06/27 18:03:37;;;;;;;7.33;4.63;;;;;;;;;;778021;180;653137;-74
2022/06/27 18:06:03;;;;;;;7.93;4.27;;;;;;;;;;773824;180;807566;-70
2022/06/27 18:08:28;;;;;;;5.93;4.17;;;;;;;;;;773123;180;632342;-74
2022/06/27 18:10:54;;;;;;;6.63;4.53;;;;;;;;;;767070;180;628249;-71
2022/06/27 18:13:20;;;;;;;4.73;3.70;;;;;;;;;;777022;178;614870;-72
2022/06/27 18:15:46;;;;;;;6.90;3.77;;;;;;;;;;768470;181;630769;-74
2022/06/27 18:18:12;;;;;;;6.13;3.93;;;;;;;;;;768450;181;633558;-71
2022/06/27 18:20:38;;;;;;;5.43;4.57;;;;;;;;;;775426;181;652652;-69
2022/06/27 18:23:04;;;;;;;7.17;4.10;;;;;;;;;;770848;181;635062;-71
2022/06/27 18:25:31;;;;;;;9.63;4.60;;;;;;;;;;772378;180;860559;-72
2022/06/27 18:27:55;;;;;;;8.17;4.03;;;;;;;;;;779661;180;715531;-71
2022/06/27 18:30:21;;;;;;;9.33;4.17;;;;;;;;;;775640;180;634897;-72
2022/06/27 18:32:47;;;;;;;5.17;3.80;;;;;;;;;;773428;180;625573;-72
2022/06/27 18:35:13;;;;;;;6.30;4.37;;;;;;;;;;771325;181;618925;-68
2022/06/27 18:37:39;;;;;;;7.47;4.10;;;;;;;;;;775208;180;616889;-73
2022/06/27 18:40:05;;;;;;;7.20;4.70;;;;;;;;;;770303;180;738997;-72
2022/06/27 18:42:32;;;;;;;6.63;4.27;;;;;;;;;;771132;180;632190;-69
2022/06/27 18:44:57;;;;;;;8.67;4.80;;;;;;;;;;770654;182;635194;-71
2022/06/27 18:47:23;;;;;;;5.43;4.43;;;;;;;;;;761010;182;660459;-73
2022/06/27 18:49:49;;;;;;;7.03;4.70;;;;;;;;;;764698;182;629990;-72
2022/06/27 18:52:15;;;;;;;9.77;4.87;;;;;;;;;;764346;183;642527;-69
2022/06/27 18:54:41;;;;;;;7.23;4.60;;;;;;;;;;738710;190;642880;-74
2022/06/27 18:57:07;;;;;;;8.27;5.97;;;;;;;;;;768279;183;654099;-70
2022/06/27 18:59:32;;;;;;;11.90;5.00;;;;;;;;;;775766;180;631538;-75
2022/06/27 19:01:59;;;;;;;9.20;6.23;;;;;;;;;;771105;180;633823;-70
2022/06/27 19:04:24;;;;;;;11.67;4.60;;;;;;;;;;770652;181;642938;-71
2022/06/27 19:06:52;;;;;;;10.40;5.13;;;;;;;;;;772613;180;635543;-73
2022/06/27 19:09:16;;;;;;;10.10;6.77;;;;;;;;;;778363;181;618706;-71
2022/06/27 19:11:42;;;;;;;16.10;5.37;;;;;;;;;;777133;180;637431;-76
2022/06/27 19:14:08;;;;;;;11.80;5.10;;;;;;;;;;770113;181;629778;-77
2022/06/27 19:16:33;;;;;;;30.10;7.63;;;;;;;;;;774252;181;663796;-75
2022/06/27 19:18:59;;;;;;;12.40;6.87;;;;;;;;;;766616;181;616902;-75
2022/06/27 19:21:26;;;;;;;7.00;5.23;;;;;;;;;;769997;180;634206;-75
2022/06/27 19:23:53;;;;;;;8.80;5.20;;;;;;;;;;771610;180;917719;-75
2022/06/27 19:26:18;;;;;;;9.70;4.57;;;;;;;;;;766284;181;918998;-74
2022/06/27 19:28:44;;;;;;;8.25;5.20;;;;;;;;;;769999;181;919278;-74
2022/06/27 19:31:10;;;;;;;14.77;6.50;;;;;;;;;;764912;181;920652;-73
2022/06/27 19:33:37;;;;;;;10.00;5.80;;;;;;;;;;775178;180;920650;-74
2022/06/27 19:36:05;;;;;;;11.00;7.00;;;;;;;;;;770260;180;916768;-73
2022/06/27 19:38:30;;;;;;;11.23;5.70;;;;;;;;;;765045;181;917806;-73
2022/06/27 19:40:56;;;;;;;8.63;6.00;;;;;;;;;;773134;181;919098;-74
2022/06/27 19:43:22;;;;;;;9.30;7.17;;;;;;;;;;765298;181;899218;-74
2022/06/27 19:45:48;;;;;;;9.97;6.43;;;;;;;;;;766062;181;920369;-73
2022/06/27 19:48:14;;;;;;;11.50;5.67;;;;;;;;;;773954;180;915805;-73
2022/06/27 19:50:40;;;;;;;8.17;6.50;;;;;;;;;;761299;181;918321;-74
2022/06/27 19:53:06;;;;;;;9.13;6.97;;;;;;;;;;767102;180;918701;-73
2022/06/27 19:55:32;;;;;;;15.13;7.53;;;;;;;;;;768287;180;914522;-75
2022/06/27 19:57:57;;;;;;;20.40;8.07;;;;;;;;;;764844;182;917944;-73
2022/06/27 20:00:23;;;;;;;15.50;8.27;;;;;;;;;;761181;183;920748;-73
2022/06/27 20:02:49;;;;;;;12.97;8.37;;;;;;;;;;757959;182;916073;-73
2022/06/27 20:05:15;;;;;;;11.93;6.83;;;;;;;;;;773952;180;918208;-73
2022/06/27 20:07:41;;;;;;;16.03;7.40;;;;;;;;;;766265;179;913932;-74
2022/06/27 20:10:07;;;;;;;10.93;7.10;;;;;;;;;;767046;181;953852;-73
2022/06/27 20:12:33;;;;;;;11.60;6.70;;;;;;;;;;774590;180;918515;-73
2022/06/27 20:14:59;;;;;;;12.53;7.63;;;;;;;;;;764626;181;920562;-73
2022/06/27 20:17:25;;;;;;;16.67;8.70;;;;;;;;;;766864;180;912113;-73
2022/06/27 20:19:51;;;;;;;9.23;6.60;;;;;;;;;;768431;180;913917;-72
2022/06/27 20:22:19;;;;;;;12.10;8.00;;;;;;;;;;773376;180;911221;-72
2022/06/27 20:24:43;;;;;;;10.50;6.10;;;;;;;;;;769296;180;912239;-73
2022/06/27 20:27:09;;;;;;;8.23;7.07;;;;;;;;;;769028;181;912785;-73
2022/06/27 20:29:35;;;;;;;10.37;8.17;;;;;;;;;;774248;180;896572;-72
2022/06/27 20:32:01;;;;;;;10.37;7.67;;;;;;;;;;769669;180;916692;-72
2022/06/27 20:34:27;;;;;;;8.13;6.03;;;;;;;;;;766592;181;916294;-72
2022/06/27 20:36:53;;;;;;;13.13;7.30;;;;;;;;;;775446;180;914773;-73
2022/06/27 20:39:18;;;;;;;10.07;6.70;;;;;;;;;;763401;180;919292;-73
2022/06/27 20:41:44;;;;;;;9.57;7.20;;;;;;;;;;771411;180;913969;-72
2022/06/27 20:44:10;;;;;;;16.53;6.87;;;;;;;;;;766463;180;918897;-73
2022/06/27 20:46:36;;;;;;;10.40;7.03;;;;;;;;;;759785;184;918334;-73
2022/06/27 20:49:02;;;;;;;8.63;6.90;;;;;;;;;;767290;180;919291;-72
2022/06/27 20:51:28;;;;;;;10.53;7.07;;;;;;;;;;759487;183;918398;-72
2022/06/27 20:53:53;;;;;;;9.50;7.23;;;;;;;;;;772027;180;917925;-72
2022/06/27 20:56:19;;;;;;;10.77;6.20;;;;;;;;;;767719;180;918738;-72
2022/06/27 20:58:45;;;;;;;9.47;6.97;;;;;;;;;;769189;181;918321;-73
2022/06/27 21:01:11;;;;;;;10.60;7.03;;;;;;;;;;774921;181;654741;-74
2022/06/27 21:03:37;;;;;;;9.23;6.90;;;;;;;;;;771792;180;919271;-72
2022/06/27 21:06:03;;;;;;;7.80;6.50;;;;;;;;;;763889;183;918819;-72
2022/06/27 21:13:32;;;;;;;17.23;6.77;;;;;;;;;;764316;182;915922;-73
2022/06/27 21:15:58;;;;;;;9.88;7.03;;;;;;;;;;770071;180;916132;-73
2022/06/27 21:18:24;;;;;;;8.75;6.35;;;;;;;;;;774153;180;916270;-71
2022/06/27 21:20:50;;;;;;;10.23;7.47;;;;;;;;;;772522;179;916908;-73
2022/06/27 21:23:16;;;;;;;7.60;6.80;;;;;;;;;;762847;183;915775;-74
2022/06/27 21:25:42;;;;;;;7.62;6.68;;;;;;;;;;763140;181;914180;-73
2022/06/27 21:28:08;;;;;;;8.00;6.50;;;;;;;;;;774436;181;608497;-73
2022/06/27 21:30:35;;;;;;;7.00;6.30;;;;;;;;;;772725;181;914704;-73
2022/06/27 21:32:59;;;;;;;10.83;7.00;;;;;;;;;;764285;181;915726;-74
2022/06/27 21:35:25;;;;;;;7.90;6.03;;;;;;;;;;776331;181;915450;-73
2022/06/27 21:37:51;;;;;;;9.87;6.33;;;;;;;;;;766683;180;985687;-73
2022/06/27 21:40:17;;;;;;;8.20;7.17;;;;;;;;;;763018;181;1021781;-74
2022/06/27 21:42:44;;;;;;;9.03;6.80;;;;;;;;;;779513;181;632666;-74
2022/06/27 21:45:09;;;;;;;10.33;8.30;;;;;;;;;;775835;180;636134;-73
2022/06/27 21:47:35;;;;;;;7.93;7.00;;;;;;;;;;761296;181;918738;-74
2022/06/27 21:50:00;;;;;;;9.13;7.00;;;;;;;;;;760725;182;935139;-73
2022/06/27 21:54:58;;;;;;;7.30;6.53;;;;;;;;;;770738;181;919642;-73
2022/06/27 21:57:24;;;;;;;13.03;6.67;;;;;;;;;;769543;181;918139;-72
2022/06/27 21:59:50;;;;;;;7.80;6.30;;;;;;;;;;775474;181;919056;-73
2022/06/27 22:02:16;;;;;;;11.23;6.83;;;;;;;;;;761300;181;919114;-72
2022/06/27 22:04:41;;;;;;;12.10;7.33;;;;;;;;;;764502;181;1123956;-73
2022/06/27 22:07:07;;;;;;;8.03;6.00;;;;;;;;;;770858;181;918461;-72
2022/06/27 22:09:33;;;;;;;8.30;6.80;;;;;;;;;;774242;181;917939;-72
2022/06/27 22:11:59;;;;;;;14.30;7.93;;;;;;;;;;760582;182;918593;-73
2022/06/27 22:14:25;;;;;;;11.20;6.82;;;;;;;;;;761401;179;918212;-71
2022/06/27 22:16:51;;;;;;;13.43;7.30;;;;;;;;;;777416;180;919605;-72
2022/06/27 22:19:16;;;;;;;13.43;6.47;;;;;;;;;;766247;180;919658;-72
2022/06/27 22:21:43;;;;;;;8.53;7.00;;;;;;;;;;757475;183;1021274;-72
2022/06/27 22:24:09;;;;;;;9.10;7.53;;;;;;;;;;771856;180;920452;-72
2022/06/27 22:26:35;;;;;;;9.27;7.60;;;;;;;;;;771325;180;918932;-72
2022/06/27 22:29:01;;;;;;;8.90;8.00;;;;;;;;;;769723;181;918890;-72
2022/06/27 22:31:27;;;;;;;8.20;7.37;;;;;;;;;;774016;180;918984;-71
2022/06/27 22:33:53;;;;;;;9.60;7.47;;;;;;;;;;771310;182;617804;-72
2022/06/27 22:36:18;;;;;;;8.80;7.20;;;;;;;;;;770989;180;894690;-72
2022/06/27 22:38:44;;;;;;;8.80;7.50;;;;;;;;;;759626;181;919199;-72
2022/06/27 22:41:10;;;;;;;10.30;8.60;;;;;;;;;;765799;181;917649;-71
2022/06/27 22:43:36;;;;;;;9.30;8.27;;;;;;;;;;767674;181;918472;-69
2022/06/27 22:46:02;;;;;;;11.60;7.63;;;;;;;;;;765660;181;918855;-72
2022/06/27 22:48:28;;;;;;;9.50;7.13;;;;;;;;;;770536;181;918768;-71
2022/06/27 22:50:53;;;;;;;20.73;8.10;;;;;;;;;;769599;180;918481;-71
2022/06/27 22:53:19;;;;;;;10.82;8.45;;;;;;;;;;774004;180;918886;-71
2022/06/27 22:55:46;;;;;;;11.03;7.77;;;;;;;;;;773525;181;918589;-72
2022/06/27 22:58:11;;;;;;;11.13;7.73;;;;;;;;;;769659;179;919565;-72
2022/06/27 23:00:37;;;;;;;12.93;7.43;;;;;;;;;;767075;181;919113;-71
2022/06/27 23:03:03;;;;;;;8.80;7.90;;;;;;;;;;759502;181;918784;-71
2022/06/27 23:05:28;;;;;;;12.73;8.20;;;;;;;;;;765822;181;919218;-71
2022/06/27 23:07:54;;;;;;;13.23;7.83;;;;;;;;;;757884;181;918848;-72
2022/06/27 23:10:20;;;;;;;9.53;7.37;;;;;;;;;;764442;181;922191;-72
2022/06/27 23:12:46;;;;;;;8.07;7.20;;;;;;;;;;775514;181;919023;-74
2022/06/27 23:15:12;;;;;;;9.73;6.80;;;;;;;;;;764034;181;932248;-71
2022/06/27 23:17:39;;;;;;;8.57;6.57;;;;;;;;;;768656;180;919607;-71
2022/06/27 23:20:05;;;;;;;12.40;8.20;;;;;;;;;;774412;180;917561;-72
2022/06/27 23:22:30;;;;;;;8.83;6.63;;;;;;;;;;760964;181;918394;-72
2022/06/27 23:24:56;;;;;;;9.97;7.13;;;;;;;;;;764892;180;919604;-71
2022/06/27 23:27:22;;;;;;;10.57;8.20;;;;;;;;;;767740;180;919548;-71
2022/06/27 23:29:48;;;;;;;7.73;7.00;;;;;;;;;;777048;180;923076;-71
2022/06/27 23:32:14;;;;;;;10.53;7.43;;;;;;;;;;768353;180;919422;-71
2022/06/27 23:34:40;;;;;;;9.10;6.83;;;;;;;;;;762151;180;918290;-71
2022/06/27 23:37:05;;;;;;;11.80;8.70;;;;;;;;;;763570;183;919065;-71
2022/06/27 23:39:31;;;;;;;13.17;8.07;;;;;;;;;;764046;181;919027;-71
2022/06/27 23:41:57;;;;;;;12.43;8.03;;;;;;;;;;770828;181;919318;-71
2022/06/27 23:44:24;;;;;;;14.87;10.07;;;;;;;;;;777006;181;918625;-71
2022/06/27 23:46:50;;;;;;;9.43;8.43;;;;;;;;;;752524;181;918849;-72
2022/06/27 23:49:16;;;;;;;9.63;6.90;;;;;;;;;;760798;182;918721;-72
2022/06/27 23:51:41;;;;;;;10.93;6.90;;;;;;;;;;760507;183;919495;-71
2022/06/27 23:54:07;;;;;;;11.13;7.37;;;;;;;;;;761436;181;918367;-72
2022/06/27 23:56:33;;;;;;;13.40;8.20;;;;;;;;;;767387;183;919360;-72
2022/06/27 23:58:59;;;;;;;10.23;6.07;;;;;;;;;;770682;180;918740;-71
